Time;durP1;ratioP1;P1;durP2;ratioP2;P2;SDS_P1;SDS_P2;PMS_P1;PMS_P2;Temp;Humidity;BMP_temperature;BMP_pressure;BME280_temperature;BME280_humidity;BME280_pressure;Samples;Min_cycle;Max_cycle;Signal;HPM_P1;HPM_P2
2020/12/27 00:00:14;;;;;;;109.65;41.90;;;;;;;8.33;78.98;99626.16;5054446;28;20025;-76
2020/12/27 00:02:39;;;;;;;191.27;48.38;;;;;;;7.83;79.08;99552.53;5054261;28;20161;-76
2020/12/27 00:05:08;;;;;;;206.68;52.72;;;;;;;7.94;78.95;99575.88;5054605;28;20111;-76
2020/12/27 00:07:34;;;;;;;117.03;48.67;;;;;;;7.54;79.14;99511.72;5054355;28;20390;-75
2020/12/27 00:10:00;;;;;;;209.85;53.25;;;;;;;8.16;78.89;99612.09;5054425;28;20086;-77
2020/12/27 00:12:25;;;;;;;151.48;49.13;;;;;;;7.90;79.13;99585.91;5036888;28;20040;-79
2020/12/27 00:14:50;;;;;;;236.00;66.53;;;;;;;8.27;78.66;99626.78;5054372;28;20029;-78
2020/12/27 00:17:16;;;;;;;186.93;63.35;;;;;;;8.33;78.55;99639.31;5054108;28;20443;-76
2020/12/27 00:19:41;;;;;;;123.75;45.03;;;;;;;8.08;78.89;99598.09;5054183;28;20078;-77
2020/12/27 00:22:08;;;;;;;107.47;43.58;;;;;;;8.21;78.86;99636.13;5036604;28;20025;-77
2020/12/27 00:24:33;;;;;;;161.10;45.30;;;;;;;8.22;78.74;99622.00;5054204;28;20029;-76
2020/12/27 00:26:59;;;;;;;108.72;41.58;;;;;;;8.06;78.58;99593.00;5054325;28;20455;-77
2020/12/27 00:29:25;;;;;;;135.00;42.25;;;;;;;8.39;79.00;99659.72;5054239;28;20048;-76
2020/12/27 00:31:51;;;;;;;116.15;38.35;;;;;;;7.87;78.80;99565.19;5054008;28;20403;-77
2020/12/27 00:34:17;;;;;;;149.32;44.35;;;;;;;8.42;79.12;99655.94;5054209;28;20017;-77
2020/12/27 00:36:43;;;;;;;190.38;52.25;;;;;;;8.12;78.54;99630.97;5054021;28;20096;-75
2020/12/27 00:39:08;;;;;;;163.80;47.92;;;;;;;8.25;78.80;99639.28;5054166;28;20416;-78
2020/12/27 00:41:34;;;;;;;150.93;51.65;;;;;;;7.69;78.58;99547.88;5054076;28;20017;-76
2020/12/27 00:44:00;;;;;;;132.88;43.35;;;;;;;8.42;78.60;99677.81;5054172;28;20404;-76
2020/12/27 00:46:26;;;;;;;131.65;45.08;;;;;;;7.83;78.96;99582.25;5053980;28;20025;-76
2020/12/27 00:48:51;;;;;;;221.80;56.03;;;;;;;8.42;78.61;99677.00;5036290;28;20033;-76
2020/12/27 00:51:21;;;;;;;263.00;56.47;;;;;;;8.37;78.57;99681.91;5054151;28;20033;-77
2020/12/27 00:53:47;;;;;;;323.13;64.45;;;;;;;8.32;78.98;99682.34;5053932;28;20025;-76
2020/12/27 00:56:12;;;;;;;145.52;45.30;;;;;;;7.99;79.04;99618.28;5036430;28;20097;-76
2020/12/27 00:58:39;;;;;;;221.48;48.08;;;;;;;7.95;79.58;99609.06;5053859;28;20032;-76
2020/12/27 01:01:06;;;;;;;117.53;37.83;;;;;;;8.17;79.20;99642.66;5054502;28;20017;-77
2020/12/27 01:03:32;;;;;;;116.97;37.70;;;;;;;8.25;79.30;99671.66;5039807;28;20021;-76
2020/12/27 01:05:58;;;;;;;134.38;38.25;;;;;;;8.17;79.13;99636.59;5057645;28;20087;-76
2020/12/27 01:08:23;;;;;;;85.93;32.88;;;;;;;7.79;79.41;99559.91;5057717;28;20087;-76
2020/12/27 01:10:49;;;;;;;124.32;37.60;;;;;;;8.37;79.07;99668.75;5057448;28;20028;-77
2020/12/27 01:13:14;;;;;;;123.03;35.75;;;;;;;8.28;79.36;99652.91;5039880;28;20112;-76
2020/12/27 01:15:40;;;;;;;91.93;34.03;;;;;;;8.41;79.33;99667.44;5039682;28;20144;-76
2020/12/27 01:18:06;;;;;;;73.97;32.17;;;;;;;8.05;79.40;99617.66;5057214;28;20368;-75
2020/12/27 01:20:33;;;;;;;98.50;33.75;;;;;;;7.84;79.16;99568.13;5057494;28;20025;-76
2020/12/27 01:22:58;;;;;;;130.23;40.58;;;;;;;8.01;78.61;99592.66;5057194;28;20036;-75
2020/12/27 01:25:24;;;;;;;171.68;48.95;;;;;;;8.06;79.19;99600.88;5057293;28;20393;-75
2020/12/27 01:27:49;;;;;;;80.75;33.92;;;;;;;8.21;79.55;99630.06;5057124;28;20021;-76
2020/12/27 01:30:14;;;;;;;107.15;40.55;;;;;;;8.19;79.57;99626.75;5057205;28;20107;-76
2020/12/27 01:32:41;;;;;;;83.82;34.33;;;;;;;8.22;79.63;99621.19;5039272;28;20078;-75
2020/12/27 01:35:06;;;;;;;133.68;39.25;;;;;;;8.45;79.35;99658.25;5057234;28;20076;-75
2020/12/27 01:37:32;;;;;;;109.82;34.92;;;;;;;8.46;79.49;99652.00;5039416;28;20447;-76
2020/12/27 01:39:57;;;;;;;71.20;29.80;;;;;;;8.46;79.43;99647.56;5057035;28;20029;-77
2020/12/27 01:42:23;;;;;;;101.50;32.17;;;;;;;8.48;79.55;99642.97;5056925;28;20112;-76
2020/12/27 01:44:48;;;;;;;94.30;31.77;;;;;;;8.35;79.21;99626.00;5056832;28;20025;-76
2020/12/27 01:47:22;;;;;;;90.45;33.72;;;;;;;8.52;79.10;99635.56;5056931;28;20021;-76
2020/12/27 01:49:49;;;;;;;78.07;31.75;;;;;;;8.29;79.54;99595.88;5056727;28;20442;-75
2020/12/27 01:52:15;;;;;;;92.93;33.25;;;;;;;8.56;79.38;99626.34;5056903;28;20029;-76
2020/12/27 01:54:40;;;;;;;95.15;34.25;;;;;;;8.35;79.37;99602.31;5056640;28;20025;-77
2020/12/27 01:57:42;;;;;;;77.03;31.98;;;;;;;8.06;79.68;99548.31;5056657;28;20108;-76
2020/12/27 02:00:07;;;;;;;66.27;31.33;;;;;;;8.51;79.31;99612.88;5056651;28;20431;-76
2020/12/27 02:02:33;;;;;;;145.73;45.25;;;;;;;8.48;79.63;99615.81;5056338;28;20279;-75
2020/12/27 02:04:58;;;;;;;72.20;33.00;;;;;;;8.62;79.53;99640.69;5038822;28;20384;-76
2020/12/27 02:07:28;;;;;;;91.05;35.33;;;;;;;8.62;79.17;99635.41;5056511;28;20013;-76
2020/12/27 02:09:56;;;;;;;83.90;36.15;;;;;;;8.56;79.82;99629.81;5056421;28;20021;-76
2020/12/27 02:12:24;;;;;;;94.47;37.33;;;;;;;8.64;79.46;99638.69;5056069;28;20016;-75
2020/12/27 02:14:52;;;;;;;86.32;35.75;;;;;;;8.51;79.42;99626.84;5055831;28;20025;-76
2020/12/27 02:17:17;;;;;;;75.72;32.85;;;;;;;8.29;79.70;99573.03;5056154;28;20028;-75
2020/12/27 02:19:43;;;;;;;86.40;37.15;;;;;;;8.28;79.59;99576.63;5056200;28;20111;-75
2020/12/27 02:22:08;;;;;;;80.18;36.05;;;;;;;7.98;79.44;99520.19;5056355;28;20021;-76
2020/12/27 02:24:33;;;;;;;89.38;36.42;;;;;;;8.67;79.66;99641.84;5038370;28;20021;-76
2020/12/27 02:27:01;;;;;;;83.72;35.55;;;;;;;8.17;79.88;99569.03;5056180;28;20024;-76
2020/12/27 02:29:28;;;;;;;80.68;34.75;;;;;;;8.28;79.49;99597.69;5038299;28;20343;-76
2020/12/27 02:31:55;;;;;;;86.68;35.33;;;;;;;8.53;79.40;99632.78;5055899;28;20532;-76
2020/12/27 02:34:21;;;;;;;126.38;45.85;;;;;;;8.71;79.54;99656.31;5038302;28;20104;-76
2020/12/27 02:36:47;;;;;;;139.30;47.63;;;;;;;8.63;79.76;99642.31;5055918;28;20301;-76
2020/12/27 02:39:13;;;;;;;102.43;40.97;;;;;;;8.72;79.98;99651.88;5055804;28;20036;-76
2020/12/27 02:41:39;;;;;;;74.10;36.75;;;;;;;8.47;79.98;99595.75;5055701;28;20044;-76
2020/12/27 02:44:06;;;;;;;81.28;35.70;;;;;;;8.46;79.65;99594.13;5055719;28;20048;-75
2020/12/27 02:46:31;;;;;;;84.88;34.35;;;;;;;8.77;79.68;99634.59;5055794;28;20416;-75
2020/12/27 02:48:57;;;;;;;72.00;33.83;;;;;;;8.65;79.94;99635.09;5021399;28;20021;-76
2020/12/27 02:51:24;;;;;;;79.43;35.50;;;;;;;8.77;79.87;99637.22;5055607;28;20151;-76
2020/12/27 02:53:51;;;;;;;73.05;32.63;;;;;;;8.53;79.79;99598.56;5055455;28;20096;-76
2020/12/27 02:56:27;;;;;;;68.32;32.70;;;;;;;8.74;80.15;99650.72;5037919;28;20082;-75
2020/12/27 02:59:00;;;;;;;75.40;35.20;;;;;;;8.78;80.06;99648.59;5055369;28;20099;-76
2020/12/27 03:01:26;;;;;;;98.75;36.92;;;;;;;8.79;79.52;99642.34;5055376;28;20025;-76
2020/12/27 03:03:52;;;;;;;74.72;32.33;;;;;;;8.58;79.97;99619.13;5055173;28;20082;-76
2020/12/27 03:06:21;;;;;;;115.15;39.83;;;;;;;8.61;79.57;99613.53;5055399;28;20056;-76
2020/12/27 03:08:54;;;;;;;82.50;35.08;;;;;;;8.71;79.52;99626.53;5055201;28;20343;-76
2020/12/27 03:11:24;;;;;;;65.68;31.98;;;;;;;8.72;79.87;99626.38;5037531;28;20344;-75
2020/12/27 03:13:50;;;;;;;113.30;45.10;;;;;;;8.57;79.63;99606.94;5055080;28;20025;-76
2020/12/27 03:16:16;;;;;;;120.70;49.28;;;;;;;8.83;79.35;99647.09;5055176;28;20096;-76
2020/12/27 03:18:41;;;;;;;93.28;39.22;;;;;;;8.68;79.50;99618.97;5055035;28;20053;-76
2020/12/27 03:21:06;;;;;;;69.85;32.53;;;;;;;8.43;79.64;99589.19;5055150;28;20064;-77
2020/12/27 03:23:32;;;;;;;56.60;27.73;;;;;;;8.80;79.71;99643.97;5055005;28;20029;-75
2020/12/27 03:25:57;;;;;;;66.15;30.67;;;;;;;8.89;79.68;99664.06;5053958;28;20100;-77
2020/12/27 03:28:22;;;;;;;61.03;28.77;;;;;;;8.89;79.92;99651.72;5037327;28;20420;-77
2020/12/27 03:30:48;;;;;;;59.67;30.15;;;;;;;8.73;79.36;99621.94;5054770;28;20090;-76
2020/12/27 03:33:13;;;;;;;80.53;32.75;;;;;;;8.75;79.75;99617.31;5037248;28;20020;-75
2020/12/27 03:35:38;;;;;;;58.63;26.10;;;;;;;8.77;79.75;99639.84;5054773;28;20024;-76
2020/12/27 03:38:04;;;;;;;62.67;27.65;;;;;;;8.91;79.56;99651.53;5054780;28;20032;-75
2020/12/27 03:40:29;;;;;;;43.72;22.83;;;;;;;8.62;79.59;99598.56;5054876;28;20017;-76
2020/12/27 03:42:55;;;;;;;37.33;19.45;;;;;;;8.32;79.45;99560.53;5054446;28;20024;-76
2020/12/27 03:45:20;;;;;;;32.30;16.02;;;;;;;8.94;79.99;99655.69;5054719;28;20320;-76
2020/12/27 03:47:46;;;;;;;21.17;12.13;;;;;;;8.95;79.84;99665.25;5054605;28;20029;-76
2020/12/27 03:50:11;;;;;;;22.38;12.82;;;;;;;8.82;80.01;99657.78;5054706;28;20120;-76
2020/12/27 03:52:37;;;;;;;20.70;10.68;;;;;;;8.84;79.43;99661.91;5036907;28;20016;-75
2020/12/27 03:55:02;;;;;;;11.80;7.80;;;;;;;8.72;79.70;99622.91;5036934;28;20411;-75
2020/12/27 03:57:28;;;;;;;10.88;6.63;;;;;;;8.58;79.54;99604.16;5054532;28;20104;-76
2020/12/27 03:59:53;;;;;;;9.68;5.85;;;;;;;8.77;79.50;99629.34;5054310;28;20032;-75
2020/12/27 04:02:18;;;;;;;11.65;7.40;;;;;;;8.97;79.88;99660.63;5054344;28;20353;-75
2020/12/27 04:04:44;;;;;;;7.13;4.40;;;;;;;8.80;79.46;99631.63;5036706;28;20025;-76
2020/12/27 04:07:09;;;;;;;6.72;4.70;;;;;;;8.97;79.69;99644.81;5036883;28;20347;-75
2020/12/27 04:09:35;;;;;;;6.25;3.53;;;;;;;8.71;79.47;99603.66;5054440;28;20052;-75
2020/12/27 04:12:00;;;;;;;8.32;4.40;;;;;;;8.98;79.44;99643.84;5036712;28;20029;-76
2020/12/27 04:14:26;;;;;;;6.25;3.65;;;;;;;8.98;79.71;99659.66;5054347;28;20029;-76
2020/12/27 04:16:52;;;;;;;3.90;2.67;;;;;;;8.98;79.43;99651.75;5054336;28;20063;-76
2020/12/27 04:19:17;;;;;;;5.53;2.75;;;;;;;8.47;79.41;99580.78;5054187;28;20041;-77
2020/12/27 04:21:43;;;;;;;4.88;1.83;;;;;;;8.71;79.78;99653.69;5054219;28;20029;-76
2020/12/27 04:24:09;;;;;;;1.73;1.27;;;;;;;8.34;79.51;99583.09;5054237;28;20025;-75
2020/12/27 04:26:34;;;;;;;2.78;1.60;;;;;;;8.92;79.78;99671.66;5054294;28;20047;-76
2020/12/27 04:28:59;;;;;;;3.97;2.00;;;;;;;8.47;79.59;99593.13;5054196;28;20037;-76
2020/12/27 04:31:25;;;;;;;4.85;3.03;;;;;;;8.70;79.35;99625.72;5054186;28;20338;-77
2020/12/27 04:33:52;;;;;;;4.22;3.00;;;;;;;8.56;79.46;99598.22;5036429;28;20013;-77
2020/12/27 04:36:19;;;;;;;7.82;3.92;;;;;;;8.88;79.15;99644.81;5037659;28;20027;-76
2020/12/27 04:38:44;;;;;;;4.82;4.03;;;;;;;8.88;79.38;99636.06;5058115;28;20426;-76
2020/12/27 04:41:13;;;;;;;7.22;4.50;;;;;;;8.19;79.27;99540.78;5058179;28;20091;-77
2020/12/27 04:43:41;;;;;;;5.10;4.10;;;;;;;8.87;79.22;99643.16;5040236;28;20017;-75
2020/12/27 04:46:09;;;;;;;8.32;4.97;;;;;;;8.87;79.02;99650.22;5058242;28;20021;-76
2020/12/27 04:48:35;;;;;;;9.40;6.32;;;;;;;8.85;79.30;99641.69;5058086;28;20074;-77
2020/12/27 04:51:06;;;;;;;7.60;6.72;;;;;;;8.16;79.27;99535.81;5057903;28;20377;-76
2020/12/27 04:53:33;;;;;;;7.25;5.28;;;;;;;8.82;79.25;99642.81;5057982;28;20016;-76
2020/12/27 04:56:00;;;;;;;8.88;5.93;;;;;;;8.81;79.14;99656.97;5057740;28;20108;-77
2020/12/27 04:58:26;;;;;;;7.03;4.78;;;;;;;8.68;79.20;99643.47;5057809;28;20031;-77
2020/12/27 05:00:51;;;;;;;8.13;4.38;;;;;;;8.28;79.14;99591.59;5039947;28;20115;-79
2020/12/27 05:03:17;;;;;;;8.80;5.35;;;;;;;8.83;79.41;99659.44;5057711;28;20462;-76
2020/12/27 05:05:43;;;;;;;4.85;3.33;;;;;;;8.84;79.24;99637.41;5057627;28;20443;-78
2020/12/27 05:08:09;;;;;;;5.00;3.70;;;;;;;8.53;79.36;99606.44;5040073;28;20021;-77
2020/12/27 05:10:44;;;;;;;5.28;3.47;;;;;;;8.78;79.08;99665.19;5057668;28;20021;-76
2020/12/27 05:13:14;;;;;;;4.03;3.45;;;;;;;8.46;79.39;99609.91;5057568;28;20109;-77
2020/12/27 05:15:40;;;;;;;6.93;3.65;;;;;;;8.81;79.22;99662.25;5039691;28;20162;-76
2020/12/27 05:18:09;;;;;;;7.63;4.88;;;;;;;8.43;79.05;99597.91;5057219;28;20106;-76
2020/12/27 05:20:36;;;;;;;7.22;4.50;;;;;;;8.79;78.83;99666.84;5057386;28;20028;-76
2020/12/27 05:23:06;;;;;;;5.05;4.18;;;;;;;8.54;79.04;99625.69;5057214;28;20021;-77
2020/12/27 05:25:33;;;;;;;5.80;3.42;;;;;;;8.83;79.14;99681.31;5039674;28;20100;-77
2020/12/27 05:28:10;;;;;;;7.97;5.13;;;;;;;8.84;79.01;99676.88;5039470;28;20386;-77
2020/12/27 05:30:37;;;;;;;5.03;4.03;;;;;;;8.25;79.06;99584.03;5057278;28;20030;-76
2020/12/27 05:33:16;;;;;;;9.23;6.05;;;;;;;8.77;79.47;99655.66;5057070;28;20339;-76
2020/12/27 05:35:42;;;;;;;6.57;4.80;;;;;;;8.85;79.36;99668.00;5057173;28;20434;-77
2020/12/27 05:38:10;;;;;;;7.93;5.95;;;;;;;8.83;78.82;99686.59;5057110;28;20103;-78
2020/12/27 05:40:38;;;;;;;7.65;5.43;;;;;;;8.59;78.92;99673.41;5056912;28;20038;-76
2020/12/27 05:43:15;;;;;;;9.73;6.20;;;;;;;8.80;79.57;99684.28;5056887;28;20029;-76
2020/12/27 05:45:41;;;;;;;9.45;7.05;;;;;;;8.81;79.32;99693.84;5056870;28;20404;-75
2020/12/27 05:48:07;;;;;;;11.88;8.80;;;;;;;8.64;79.33;99678.19;5038072;28;20024;-76
2020/12/27 05:50:40;;;;;;;11.38;9.07;;;;;;;8.80;79.38;99694.81;5039206;28;20029;-76
2020/12/27 05:53:16;;;;;;;11.38;9.13;;;;;;;8.21;78.73;99596.69;5056675;28;20071;-76
2020/12/27 05:55:47;;;;;;;26.92;17.25;;;;;;;8.81;79.25;99683.31;5056743;28;20025;-76
2020/12/27 05:58:21;;;;;;;33.22;20.30;;;;;;;8.56;78.91;99657.94;5056993;28;20029;-76
2020/12/27 06:00:55;;;;;;;26.23;16.77;;;;;;;8.78;79.29;99703.88;5056541;28;20029;-77
2020/12/27 06:03:22;;;;;;;38.63;25.63;;;;;;;8.77;79.19;99694.31;5056663;28;20087;-75
2020/12/27 06:05:54;;;;;;;40.88;27.60;;;;;;;8.84;79.16;99693.50;5056568;28;20402;-76
2020/12/27 06:08:46;;;;;;;34.53;21.67;;;;;;;8.82;79.31;99698.13;5056783;28;20048;-77
2020/12/27 06:11:23;;;;;;;31.77;20.98;;;;;;;8.67;78.85;99686.56;5018441;28;20039;-77
2020/12/27 06:14:07;;;;;;;33.15;23.98;;;;;;;8.82;78.95;99703.38;5038784;28;20039;-78
2020/12/27 06:17:03;;;;;;;22.15;15.38;;;;;;;8.78;79.36;99694.16;5056539;28;20408;-78
2020/12/27 06:19:39;;;;;;;16.30;11.23;;;;;;;8.66;79.15;99676.22;5030585;28;20132;-78
2020/12/27 06:22:07;;;;;;;8.60;6.53;;;;;;;8.34;78.87;99625.19;5038630;28;20078;-79
2020/12/27 06:24:33;;;;;;;8.63;6.57;;;;;;;8.64;78.72;99676.38;5056374;28;20044;-79
2020/12/27 06:27:00;;;;;;;7.43;5.78;;;;;;;8.01;78.88;99573.44;5056081;28;20032;-78
2020/12/27 06:29:41;;;;;;;6.63;5.00;;;;;;;8.53;78.82;99658.25;5056166;28;20103;-79
2020/12/27 06:32:08;;;;;;;9.55;7.55;;;;;;;8.77;79.24;99710.13;5056414;28;20427;-77
2020/12/27 06:34:34;;;;;;;12.25;8.45;;;;;;;8.55;79.28;99687.88;5038477;28;20036;-77
2020/12/27 06:37:07;;;;;;;10.75;7.45;;;;;;;8.31;78.95;99653.59;5055864;28;20111;-76
2020/12/27 06:39:33;;;;;;;21.50;15.45;;;;;;;8.15;78.91;99639.38;5056059;28;20037;-77
2020/12/27 06:42:08;;;;;;;43.40;27.83;;;;;;;8.77;79.16;99736.44;5055747;28;20044;-78
2020/12/27 06:44:48;;;;;;;15.63;10.35;;;;;;;8.58;78.67;99693.63;5055873;28;20123;-77
2020/12/27 06:47:15;;;;;;;15.07;10.45;;;;;;;8.72;78.84;99709.78;5055932;28;20033;-78
2020/12/27 06:49:40;;;;;;;8.60;6.57;;;;;;;8.79;78.92;99716.03;5055720;28;20052;-76
2020/12/27 06:52:23;;;;;;;8.35;6.28;;;;;;;8.81;79.00;99722.78;5037977;28;20057;-77
2020/12/27 06:54:53;;;;;;;7.22;5.20;;;;;;;8.65;78.56;99693.81;5037853;28;20029;-78
2020/12/27 06:57:43;;;;;;;6.80;5.45;;;;;;;8.82;78.57;99719.16;5037944;28;20400;-78
2020/12/27 07:00:25;;;;;;;9.30;7.20;;;;;;;8.82;78.86;99720.97;5055332;28;20059;-79
2020/12/27 07:03:24;;;;;;;9.40;7.72;;;;;;;8.81;79.01;99735.97;5055378;28;20412;-77
2020/12/27 07:05:50;;;;;;;11.77;9.20;;;;;;;8.79;78.83;99729.22;5055368;28;20033;-77
2020/12/27 07:08:41;;;;;;;13.45;10.63;;;;;;;8.60;78.73;99688.22;5055502;28;20428;-77
2020/12/27 07:11:07;;;;;;;14.68;11.60;;;;;;;8.78;78.53;99722.28;5024673;28;20401;-77
2020/12/27 07:13:41;;;;;;;16.38;11.43;;;;;;;8.79;78.43;99722.13;5055293;28;20024;-77
2020/12/27 07:16:11;;;;;;;17.35;12.27;;;;;;;8.80;78.87;99713.25;5055242;28;20029;-77
2020/12/27 07:18:37;;;;;;;16.88;13.63;;;;;;;8.41;78.55;99654.28;5037333;28;20049;-77
2020/12/27 07:21:03;;;;;;;15.65;11.00;;;;;;;8.81;78.93;99730.69;5055094;28;20036;-78
2020/12/27 07:23:32;;;;;;;14.10;11.25;;;;;;;8.50;78.59;99675.19;5055005;28;20422;-77
2020/12/27 07:26:00;;;;;;;22.27;14.38;;;;;;;8.74;78.79;99710.44;5055045;28;20028;-77
2020/12/27 07:28:27;;;;;;;29.15;16.23;;;;;;;8.87;78.51;99723.94;5055052;28;20059;-76
2020/12/27 07:30:59;;;;;;;17.25;13.02;;;;;;;8.77;78.55;99702.22;5054984;28;20487;-76
2020/12/27 07:33:29;;;;;;;17.65;12.93;;;;;;;8.90;78.64;99726.25;5055141;28;20052;-77
2020/12/27 07:36:05;;;;;;;25.30;19.13;;;;;;;8.91;78.48;99726.09;5054767;28;20071;-76
2020/12/27 07:38:39;;;;;;;34.08;22.38;;;;;;;8.92;78.72;99726.94;5054838;28;20063;-76
2020/12/27 07:41:08;;;;;;;27.55;20.23;;;;;;;8.70;78.69;99690.69;5054740;28;20059;-76
2020/12/27 07:43:34;;;;;;;29.85;20.55;;;;;;;8.57;78.33;99683.28;5054736;28;20032;-76
2020/12/27 07:46:08;;;;;;;30.10;20.83;;;;;;;8.92;78.09;99734.84;5054661;28;20355;-76
2020/12/27 07:48:41;;;;;;;29.27;21.42;;;;;;;8.89;78.21;99735.16;5054685;28;20064;-76
2020/12/27 07:51:11;;;;;;;24.23;17.95;;;;;;;8.81;78.27;99708.81;5054843;28;20029;-77
2020/12/27 07:53:36;;;;;;;25.40;19.05;;;;;;;8.94;78.03;99735.50;5054764;28;20020;-76
2020/12/27 07:56:01;;;;;;;37.05;24.70;;;;;;;8.76;78.29;99706.66;5054508;28;20024;-77
2020/12/27 07:58:28;;;;;;;29.35;21.50;;;;;;;8.35;78.16;99642.59;5054557;28;20139;-78
2020/12/27 08:00:53;;;;;;;18.60;13.80;;;;;;;8.65;77.98;99714.88;5054393;28;20119;-77
2020/12/27 08:03:19;;;;;;;17.80;11.50;;;;;;;8.87;78.23;99752.91;5036903;28;20119;-78
2020/12/27 08:05:45;;;;;;;12.35;8.73;;;;;;;8.85;78.04;99753.06;5054439;28;20036;-78
2020/12/27 08:08:11;;;;;;;11.35;8.60;;;;;;;8.87;78.57;99747.66;5054546;28;20025;-76
2020/12/27 08:10:37;;;;;;;9.90;7.15;;;;;;;8.69;78.00;99726.72;5055460;28;20036;-77
2020/12/27 08:13:04;;;;;;;12.80;8.00;;;;;;;8.48;78.16;99687.69;5060987;28;20068;-78
2020/12/27 08:15:31;;;;;;;11.68;8.20;;;;;;;8.62;77.88;99723.09;5043394;28;20461;-78
2020/12/27 08:18:07;;;;;;;10.93;6.40;;;;;;;8.48;78.20;99700.84;5060829;28;20040;-78
2020/12/27 08:20:44;;;;;;;9.32;6.72;;;;;;;8.58;77.74;99693.63;5061192;28;20055;-78
2020/12/27 08:23:09;;;;;;;11.45;8.10;;;;;;;8.69;78.05;99715.38;5061056;28;20442;-78
2020/12/27 08:25:39;;;;;;;13.77;11.30;;;;;;;8.76;77.86;99722.44;5043725;28;20037;-77
2020/12/27 08:28:10;;;;;;;32.78;21.83;;;;;;;8.79;78.07;99727.41;5060935;28;20432;-77
2020/12/27 08:30:36;;;;;;;30.73;22.57;;;;;;;8.12;78.18;99618.66;5043299;28;20035;-78
2020/12/27 08:33:16;;;;;;;35.42;23.92;;;;;;;8.77;78.31;99734.63;5060886;28;20263;-78
2020/12/27 08:35:44;;;;;;;30.27;21.92;;;;;;;8.65;78.25;99714.88;5061028;28;20350;-78
2020/12/27 08:38:18;;;;;;;27.48;18.85;;;;;;;8.64;78.19;99710.59;5060945;28;20029;-77
2020/12/27 08:40:47;;;;;;;22.10;16.65;;;;;;;8.68;77.86;99711.91;5060976;28;20029;-78
2020/12/27 08:43:41;;;;;;;21.17;15.73;;;;;;;8.77;78.10;99732.00;5043033;28;20039;-78
2020/12/27 08:46:11;;;;;;;21.08;15.85;;;;;;;8.78;78.03;99744.19;5043205;28;20120;-77
2020/12/27 08:48:44;;;;;;;23.95;16.05;;;;;;;8.16;77.64;99627.88;5060840;28;20029;-78
2020/12/27 08:51:12;;;;;;;29.85;20.60;;;;;;;8.67;78.27;99717.34;5060906;28;20029;-78
2020/12/27 08:53:44;;;;;;;27.15;18.52;;;;;;;8.76;77.92;99740.88;5060862;28;20475;-78
2020/12/27 08:56:10;;;;;;;35.53;22.10;;;;;;;8.79;78.31;99730.03;5060942;28;20036;-77
2020/12/27 08:58:36;;;;;;;26.98;19.25;;;;;;;8.81;78.42;99724.59;5060762;28;20435;-77
2020/12/27 09:01:02;;;;;;;22.27;16.20;;;;;;;8.74;77.83;99707.81;5060567;28;20072;-79
2020/12/27 09:03:28;;;;;;;30.23;18.58;;;;;;;8.34;77.76;99648.03;5060910;28;20348;-77
2020/12/27 09:05:53;;;;;;;29.25;19.75;;;;;;;8.49;77.93;99657.75;5060488;28;20025;-77
2020/12/27 09:08:20;;;;;;;31.02;20.13;;;;;;;8.84;78.28;99696.13;5060695;28;20029;-78
2020/12/27 09:10:47;;;;;;;37.47;25.50;;;;;;;8.78;77.87;99685.44;5060424;28;20423;-76
2020/12/27 09:13:15;;;;;;;38.90;25.92;;;;;;;8.84;78.06;99687.41;5060588;28;20071;-78
2020/12/27 09:15:48;;;;;;;44.13;31.08;;;;;;;8.80;78.33;99683.47;5042853;28;20039;-76
2020/12/27 09:18:16;;;;;;;54.38;34.83;;;;;;;8.83;78.10;99683.13;5060438;28;20459;-79
2020/12/27 09:20:43;;;;;;;54.53;33.38;;;;;;;8.87;78.33;99687.09;5042783;28;20063;-76
2020/12/27 09:23:20;;;;;;;66.28;39.88;;;;;;;8.91;78.04;99683.97;5058495;28;20029;-78
2020/12/27 09:26:09;;;;;;;62.67;37.72;;;;;;;8.65;78.21;99646.44;5039488;28;20029;-77
2020/12/27 09:28:37;;;;;;;51.88;33.33;;;;;;;8.62;78.33;99619.63;5057266;28;20024;-78
2020/12/27 09:31:11;;;;;;;58.33;38.70;;;;;;;8.99;78.47;99666.56;5057095;28;20033;-78
2020/12/27 09:33:43;;;;;;;59.40;40.25;;;;;;;8.99;78.21;99653.38;5057115;28;20021;-76
2020/12/27 09:36:09;;;;;;;;;;;;;;;8.93;78.99;99654.03;5039955;28;20086;-77
2020/12/27 09:38:44;;;;;;;67.43;39.85;;;;;;;9.00;78.13;99661.13;5039357;28;19915;-77
2020/12/27 09:41:17;;;;;;;83.35;48.15;;;;;;;8.98;78.49;99652.56;5057107;28;20055;-77
2020/12/27 09:43:48;;;;;;;68.90;40.47;;;;;;;8.33;78.41;99534.09;5056839;28;20071;-77
2020/12/27 09:46:46;;;;;;;58.15;34.63;;;;;;;8.54;77.91;99559.91;5056904;28;20025;-76
2020/12/27 09:49:34;;;;;;;63.55;40.05;;;;;;;9.05;78.10;99631.66;5039364;28;20029;-76
2020/12/27 09:52:12;;;;;;;47.28;33.35;;;;;;;8.91;78.00;99615.50;5056748;28;20029;-77
2020/12/27 09:54:42;;;;;;;42.55;29.60;;;;;;;9.08;78.07;99631.31;5056788;28;20415;-75
2020/12/27 09:57:15;;;;;;;36.92;26.77;;;;;;;8.83;78.38;99588.34;5056651;28;20028;-76
2020/12/27 09:59:42;;;;;;;32.65;25.63;;;;;;;9.11;78.07;99626.53;5039102;28;20401;-75
2020/12/27 10:02:07;;;;;;;39.47;27.38;;;;;;;8.95;78.06;99600.22;5038832;28;20025;-76
2020/12/27 10:04:33;;;;;;;36.60;26.25;;;;;;;8.96;78.11;99580.81;5056513;28;20032;-77
2020/12/27 10:06:59;;;;;;;44.35;28.35;;;;;;;9.17;77.97;99615.34;5056425;28;20327;-76
2020/12/27 10:09:24;;;;;;;36.47;24.75;;;;;;;9.18;78.34;99608.25;5056476;28;20028;-76
2020/12/27 10:11:50;;;;;;;48.25;30.88;;;;;;;9.19;78.60;99618.63;5056396;28;20033;-77
2020/12/27 10:14:15;;;;;;;66.82;43.45;;;;;;;9.11;78.33;99604.66;5056679;28;20032;-76
2020/12/27 10:16:41;;;;;;;76.32;49.78;;;;;;;9.19;78.64;99589.66;5056426;28;20152;-75
2020/12/27 10:19:06;;;;;;;68.32;43.85;;;;;;;9.23;78.35;99584.88;5038530;28;20079;-76
2020/12/27 10:21:31;;;;;;;87.03;52.60;;;;;;;9.26;78.11;99587.16;5056195;28;20032;-76
2020/12/27 10:23:57;;;;;;;104.20;60.17;;;;;;;9.22;78.17;99572.69;5055946;28;20040;-75
2020/12/27 10:26:22;;;;;;;92.82;58.42;;;;;;;8.98;78.34;99527.97;5056439;28;20045;-75
2020/12/27 10:28:48;;;;;;;91.55;53.28;;;;;;;9.24;78.55;99581.25;5055879;28;20024;-76
2020/12/27 10:31:13;;;;;;;94.40;56.00;;;;;;;9.14;78.34;99556.91;5056124;28;20098;-76
2020/12/27 10:33:38;;;;;;;96.20;57.55;;;;;;;9.26;78.41;99570.53;5037765;28;20025;-76
2020/12/27 10:36:04;;;;;;;101.55;66.03;;;;;;;9.38;78.60;99585.81;5055773;28;20043;-76
2020/12/27 10:38:29;;;;;;;98.78;62.70;;;;;;;9.22;78.05;99539.25;5055862;28;20043;-76
2020/12/27 10:40:55;;;;;;;91.80;56.22;;;;;;;9.13;78.03;99516.56;5037936;28;20031;-76
2020/12/27 10:43:21;;;;;;;95.18;59.80;;;;;;;9.39;78.25;99555.84;5055754;28;20067;-76
2020/12/27 10:45:46;;;;;;;83.30;52.40;;;;;;;9.16;78.13;99547.03;5037904;28;20346;-77
2020/12/27 10:48:11;;;;;;;82.93;50.90;;;;;;;9.28;78.03;99547.47;5055708;28;20431;-77
2020/12/27 10:50:38;;;;;;;70.05;40.65;;;;;;;9.35;78.20;99548.44;5055710;28;20075;-77
2020/12/27 10:53:03;;;;;;;59.45;36.53;;;;;;;9.26;78.00;99520.47;5037877;28;20454;-78
2020/12/27 10:55:29;;;;;;;66.25;37.45;;;;;;;9.42;78.22;99541.50;5055653;28;20028;-77
2020/12/27 10:57:54;;;;;;;67.30;36.10;;;;;;;9.37;78.43;99539.38;5055447;28;20083;-77
2020/12/27 11:00:19;;;;;;;73.32;41.20;;;;;;;9.35;78.48;99536.09;5037918;28;20150;-78
2020/12/27 11:02:45;;;;;;;64.43;35.58;;;;;;;9.09;78.32;99482.84;5055408;28;20110;-78
2020/12/27 11:05:10;;;;;;;69.43;39.22;;;;;;;8.99;78.58;99461.97;5055496;28;20078;-77
2020/12/27 11:07:35;;;;;;;58.55;32.00;;;;;;;8.86;78.30;99424.78;5037812;28;20024;-76
2020/12/27 11:10:01;;;;;;;72.72;36.30;;;;;;;9.31;78.52;99502.34;5055165;28;20351;-75
2020/12/27 11:12:26;;;;;;;63.13;37.28;;;;;;;9.41;78.28;99506.41;5055205;28;20021;-78
2020/12/27 11:14:52;;;;;;;65.40;35.83;;;;;;;9.52;78.41;99524.50;5055171;28;20347;-77
2020/12/27 11:17:17;;;;;;;78.05;40.60;;;;;;;9.34;78.42;99479.13;5037412;28;20033;-76
2020/12/27 11:19:42;;;;;;;65.00;37.70;;;;;;;9.33;78.49;99445.84;5037605;28;20037;-75
2020/12/27 11:22:08;;;;;;;59.03;32.60;;;;;;;9.41;78.38;99453.72;5055020;28;20029;-77
2020/12/27 11:24:33;;;;;;;64.82;36.60;;;;;;;9.13;78.13;99419.13;5055089;28;20053;-77
2020/12/27 11:26:58;;;;;;;86.40;43.00;;;;;;;9.50;78.25;99457.13;5037245;28;20190;-77
2020/12/27 11:29:24;;;;;;;74.18;39.92;;;;;;;9.65;78.57;99480.94;5054884;28;20449;-76
2020/12/27 11:31:53;;;;;;;76.22;41.28;;;;;;;9.55;78.27;99474.06;5037200;28;20111;-77